Okeanos Explorer — WTDH — position and weather

sailwx.info

Track history (hours):
 
Tides and Currents Weather Stations Pressure Air Temp Water Temp Dewpoint Dewpoint Depression Visibility Wind Speed Wind Dir Waves Ship Positions

Oceanographic research ship Okeanos Explorer (USA)

Ship's website: http://oceanexplorer.noaa.gov/okeanos/

Last reported at 2019-Feb-13 11:43 UTC. Time now 2019-Feb-23 23:40 UTC.
Position N 25°27' W 079°50'.
Warning: this ship's position is 10 days out of date.

Length 69 m; draft 5 m.

Type: Ship. MMSI: 369888000.

Date/timePositionNaut miles runAvg speedWind from/ knotsBaromVisibWave heightAir tempDewpointWater temp
2019-Feb-13 11:43N 25°27' W 079°50'1 6.3
2019-Feb-13 11:29N 25°28' W 079°50'3 6.2
2019-Feb-13 11:01N 25°31' W 079°50'3 6.2
2019-Feb-13 10:31N 25°34' W 079°50'3 6.2
2019-Feb-13 10:01N 25°37' W 079°50'3 6.3
2019-Feb-13 09:30N 25°40' W 079°50'3 6.2
2019-Feb-13 09:01N 25°43' W 079°50'3 6.0
2019-Feb-13 08:31N 25°46' W 079°50'3 5.9
2019-Feb-13 08:01N 25°49' W 079°48'3 5.9
2019-Feb-13 07:30N 25°52' W 079°48'3 5.8
2019-Feb-13 07:01N 25°55' W 079°48'3 5.8
2019-Feb-13 06:31N 25°58' W 079°48'3 5.8
2019-Feb-13 06:01N 26°01' W 079°48'3 5.8
2019-Feb-13 05:30N 26°04' W 079°48'3 5.9
2019-Feb-13 05:00N 26°07' W 079°48'3 5.9
2019-Feb-13 04:30N 26°10' W 079°48'3 5.9
2019-Feb-13 04:00N 26°13' W 079°48'3 5.9
2019-Feb-13 03:30N 26°16' W 079°48'3 6.0
2019-Feb-13 03:00N 26°19' W 079°48'3 6.1
2019-Feb-13 02:30N 26°22' W 079°47'3 6.0
2019-Feb-13 02:00N 26°24' W 079°48'3 6.1
2019-Feb-13 01:30N 26°28' W 079°48'30 5.9
2019-Feb-12 20:24N 26°58' W 079°49'3 6.4
2019-Feb-12 20:00N 27°00' W 079°50'3 6.4
2019-Feb-12 19:30N 27°03' W 079°50'  
2019-Feb-08 01:55N 32°51' W 079°57'0 0.0
2019-Feb-08 00:34N 32°51' W 079°57'  
Track history (hours):
 
Tides and Currents Weather Stations Pressure Air Temp Water Temp Dewpoint Dewpoint Depression Visibility Wind Speed Wind Dir Waves Ship Positions

Oceanographic research ship Okeanos Explorer (USA)

Ship's website: http://oceanexplorer.noaa.gov/okeanos/

Last reported at 2019-Feb-13 11:43 UTC. Time now 2019-Feb-23 23:40 UTC.
Position N 25°27' W 079°50'.
Warning: this ship's position is 10 days out of date.

Length 69 m; draft 5 m.

Type: Ship. MMSI: 369888000.

Date/timePositionNaut miles runAvg speedWind from/ knotsBaromVisibWave heightAir tempDewpointWater temp
2019-Feb-13 11:43N 25°27' W 079°50'1 6.3
2019-Feb-13 11:29N 25°28' W 079°50'3 6.2
2019-Feb-13 11:01N 25°31' W 079°50'3 6.2
2019-Feb-13 10:31N 25°34' W 079°50'3 6.2
2019-Feb-13 10:01N 25°37' W 079°50'3 6.3
2019-Feb-13 09:30N 25°40' W 079°50'3 6.2
2019-Feb-13 09:01N 25°43' W 079°50'3 6.0
2019-Feb-13 08:31N 25°46' W 079°50'3 5.9
2019-Feb-13 08:01N 25°49' W 079°48'3 5.9
2019-Feb-13 07:30N 25°52' W 079°48'3 5.8
2019-Feb-13 07:01N 25°55' W 079°48'3 5.8
2019-Feb-13 06:31N 25°58' W 079°48'3 5.8
2019-Feb-13 06:01N 26°01' W 079°48'3 5.8
2019-Feb-13 05:30N 26°04' W 079°48'3 5.9
2019-Feb-13 05:00N 26°07' W 079°48'3 5.9
2019-Feb-13 04:30N 26°10' W 079°48'3 5.9
2019-Feb-13 04:00N 26°13' W 079°48'3 5.9
2019-Feb-13 03:30N 26°16' W 079°48'3 6.0
2019-Feb-13 03:00N 26°19' W 079°48'3 6.1
2019-Feb-13 02:30N 26°22' W 079°47'3 6.0
2019-Feb-13 02:00N 26°24' W 079°48'3 6.1
2019-Feb-13 01:30N 26°28' W 079°48'30 5.9
2019-Feb-12 20:24N 26°58' W 079°49'3 6.4
2019-Feb-12 20:00N 27°00' W 079°50'3 6.4
2019-Feb-12 19:30N 27°03' W 079°50'  
2019-Feb-08 01:55N 32°51' W 079°57'0 0.0
2019-Feb-08 00:34N 32°51' W 079°57'  

Dump ship's entire track history